createdAt,value
2023-11-18T00:00:59.615Z,4.35
2023-11-18T00:03:26.743Z,4.39
2023-11-18T00:05:53.862Z,4.33
2023-11-18T00:08:20.960Z,4.34
2023-11-18T00:10:48.630Z,4.37
2023-11-18T00:13:16.692Z,4.39
2023-11-18T00:15:44.106Z,4.40
2023-11-18T00:18:11.125Z,4.36
2023-11-18T00:20:38.143Z,4.37
2023-11-18T00:23:08.095Z,4.41
2023-11-18T00:25:37.380Z,4.39
2023-11-18T00:28:04.482Z,4.42
2023-11-18T00:30:31.522Z,4.49
2023-11-18T00:32:58.718Z,4.42
2023-11-18T00:35:25.785Z,4.35
2023-11-18T00:37:53.045Z,4.41
2023-11-18T00:40:20.094Z,4.34
2023-11-18T00:42:47.140Z,4.30
2023-11-18T00:45:14.141Z,4.34
2023-11-18T00:47:42.460Z,4.36
2023-11-18T00:50:09.999Z,4.29
2023-11-18T00:52:39.752Z,4.29
2023-11-18T00:55:12.141Z,4.31
2023-11-18T00:57:40.316Z,4.25
2023-11-18T01:00:15.164Z,4.22
2023-11-18T01:02:42.783Z,4.18
2023-11-18T01:05:12.039Z,4.14
2023-11-18T01:07:39.382Z,4.18
2023-11-18T01:10:07.379Z,4.21
2023-11-18T01:12:34.635Z,4.22
2023-11-18T01:15:01.707Z,4.26
2023-11-18T01:17:28.746Z,4.24
2023-11-18T01:19:56.137Z,4.26
2023-11-18T01:22:23.130Z,4.29
2023-11-18T01:24:52.125Z,4.27
2023-11-18T01:27:20.504Z,4.31
2023-11-18T01:29:50.150Z,4.28
2023-11-18T01:32:18.391Z,4.31
2023-11-18T01:34:51.099Z,4.35
2023-11-18T01:37:18.125Z,4.37
2023-11-18T01:39:45.134Z,4.37
2023-11-18T01:42:12.860Z,4.38
2023-11-18T01:44:39.946Z,4.43
2023-11-18T01:47:07.168Z,4.35
2023-11-18T01:49:38.219Z,4.33
2023-11-18T01:52:05.458Z,4.32
2023-11-18T01:54:33.295Z,4.34
2023-11-18T01:57:01.504Z,4.34
2023-11-18T01:59:31.057Z,4.37
2023-11-18T02:02:00.636Z,4.22
2023-11-18T02:04:29.114Z,4.25
2023-11-18T02:06:57.211Z,4.30
2023-11-18T02:09:33.763Z,4.25
2023-11-18T02:12:21.199Z,4.26
2023-11-18T02:14:48.477Z,4.22
2023-11-18T02:17:15.758Z,4.22
2023-11-18T02:19:42.714Z,4.28
2023-11-18T02:22:11.143Z,4.33
2023-11-18T02:24:38.311Z,4.32
2023-11-18T02:27:08.377Z,4.35
2023-11-18T02:29:38.569Z,4.30
2023-11-18T02:32:16.841Z,4.29
2023-11-18T02:34:49.669Z,4.24
2023-11-18T02:37:17.331Z,4.30
2023-11-18T02:39:44.726Z,4.29
2023-11-18T02:42:13.420Z,4.24
2023-11-18T02:44:40.440Z,4.29
2023-11-18T02:47:07.402Z,4.30
2023-11-18T02:49:37.510Z,4.34
2023-11-18T02:52:04.561Z,4.41
2023-11-18T02:54:31.607Z,4.41
2023-11-18T02:57:00.022Z,4.30
2023-11-18T02:59:27.369Z,4.29
2023-11-18T03:01:56.012Z,4.25
2023-11-18T03:04:24.852Z,4.29
2023-11-18T03:06:52.040Z,4.31
2023-11-18T03:09:19.784Z,4.32
2023-11-18T03:11:46.810Z,4.36
2023-11-18T03:14:13.879Z,4.36
2023-11-18T03:16:41.039Z,4.42
2023-11-18T03:19:09.725Z,4.39
2023-11-18T03:21:36.971Z,4.37
2023-11-18T03:24:04.004Z,4.35
2023-11-18T03:26:32.933Z,4.31
2023-11-18T03:29:00.090Z,4.35
2023-11-18T03:31:27.344Z,4.39
2023-11-18T03:33:54.395Z,4.39
2023-11-18T03:36:22.082Z,4.39
2023-11-18T03:38:50.411Z,4.42
2023-11-18T03:41:17.323Z,4.39
2023-11-18T03:43:44.275Z,4.34
2023-11-18T03:46:11.944Z,4.40
2023-11-18T03:48:38.975Z,4.39
2023-11-18T03:51:05.993Z,4.40
2023-11-18T03:53:34.846Z,4.41
2023-11-18T03:56:03.262Z,4.43
2023-11-18T03:58:30.429Z,4.40
2023-11-18T04:00:58.601Z,4.42
2023-11-18T04:03:25.594Z,4.43
2023-11-18T04:05:52.555Z,4.41
2023-11-18T04:08:19.591Z,4.39
2023-11-18T04:10:46.597Z,4.40
2023-11-18T04:13:13.890Z,4.41
2023-11-18T04:15:40.819Z,4.41
2023-11-18T04:18:07.994Z,4.45
2023-11-18T04:20:34.962Z,4.48
2023-11-18T04:23:02.000Z,4.48
2023-11-18T04:25:29.068Z,4.49
2023-11-18T04:27:56.003Z,4.50
2023-11-18T04:30:22.905Z,4.46
2023-11-18T04:32:49.900Z,4.45
2023-11-18T04:35:18.223Z,4.45
2023-11-18T04:37:47.154Z,4.49
2023-11-18T04:40:14.386Z,4.53
2023-11-18T04:42:41.374Z,4.51
2023-11-18T04:45:10.615Z,4.46
2023-11-18T04:47:38.733Z,4.39
2023-11-18T04:50:06.288Z,4.41
2023-11-18T04:52:36.049Z,4.43
2023-11-18T04:55:04.275Z,4.36
2023-11-18T04:57:31.257Z,4.35
2023-11-18T04:59:58.174Z,4.34
2023-11-18T05:02:25.313Z,4.26
2023-11-18T05:04:52.471Z,4.28
2023-11-18T05:07:19.722Z,4.30
2023-11-18T05:09:46.795Z,4.29
2023-11-18T05:12:13.749Z,4.22
2023-11-18T05:14:40.785Z,4.19
2023-11-18T05:17:08.323Z,4.18
2023-11-18T05:19:35.491Z,4.19
2023-11-18T05:22:02.519Z,4.24
2023-11-18T05:24:29.533Z,4.25
2023-11-18T05:26:56.758Z,4.26
2023-11-18T05:29:25.006Z,4.22
2023-11-18T05:31:52.366Z,4.23
2023-11-18T05:34:21.858Z,4.26
2023-11-18T05:36:49.655Z,4.28
2023-11-18T05:39:16.600Z,4.22
2023-11-18T05:41:46.872Z,4.25
2023-11-18T05:44:27.868Z,4.27
2023-11-18T05:46:55.048Z,4.27
2023-11-18T05:49:25.259Z,4.28
2023-11-18T05:51:52.878Z,4.30
2023-11-18T05:54:19.810Z,4.31
2023-11-18T05:56:46.709Z,4.27
2023-11-18T05:59:15.066Z,4.09
2023-11-18T06:01:42.223Z,4.11
2023-11-18T06:04:09.577Z,4.14
2023-11-18T06:06:38.257Z,4.15
2023-11-18T06:09:09.905Z,4.12
2023-11-18T06:11:42.237Z,4.10
2023-11-18T06:14:09.761Z,4.00
2023-11-18T06:16:39.448Z,3.99
2023-11-18T06:19:07.611Z,3.98
2023-11-18T06:21:34.646Z,3.98
2023-11-18T06:24:01.762Z,3.90
2023-11-18T06:26:28.792Z,3.86
2023-11-18T06:28:56.103Z,3.82
2023-11-18T06:31:24.832Z,3.77
2023-11-18T06:33:51.930Z,3.69
2023-11-18T06:36:19.292Z,3.66
2023-11-18T06:38:46.601Z,3.61
2023-11-18T06:41:14.666Z,3.59
2023-11-18T06:43:53.156Z,3.53
2023-11-18T06:46:23.324Z,3.57
2023-11-18T06:48:50.980Z,3.63
2023-11-18T06:51:17.957Z,3.65
2023-11-18T06:53:45.641Z,3.68
2023-11-18T06:56:12.679Z,3.64
2023-11-18T06:58:40.884Z,3.62
2023-11-18T07:01:08.069Z,3.60
2023-11-18T07:03:35.112Z,3.67
2023-11-18T07:06:02.201Z,3.68
2023-11-18T07:08:29.199Z,3.76
2023-11-18T07:10:57.832Z,3.84
2023-11-18T07:13:24.845Z,3.87
2023-11-18T07:15:51.840Z,3.92
2023-11-18T07:18:18.858Z,3.89
2023-11-18T07:20:46.415Z,3.80
2023-11-18T07:23:13.411Z,3.86
2023-11-18T07:25:40.397Z,3.85
2023-11-18T07:28:09.797Z,3.83
2023-11-18T07:30:38.094Z,3.78
2023-11-18T07:33:06.494Z,3.82
2023-11-18T07:35:33.566Z,3.79
2023-11-18T07:38:01.453Z,3.81
2023-11-18T07:40:29.376Z,3.74
2023-11-18T07:43:02.729Z,3.68
2023-11-18T07:45:30.168Z,3.75
2023-11-18T07:47:57.265Z,3.84
2023-11-18T07:50:24.222Z,3.78
2023-11-18T07:52:51.649Z,3.81
2023-11-18T07:55:19.515Z,3.88
2023-11-18T07:57:46.546Z,3.83
2023-11-18T08:00:16.205Z,3.87
2023-11-18T08:02:43.254Z,3.88
2023-11-18T08:05:14.408Z,3.80
2023-11-18T08:07:41.814Z,3.80
2023-11-18T08:10:13.869Z,3.89
2023-11-18T08:12:44.343Z,3.92
2023-11-18T08:15:11.502Z,3.99
2023-11-18T08:17:38.612Z,3.97
2023-11-18T08:20:15.111Z,3.99
2023-11-18T08:22:45.382Z,4.03
2023-11-18T08:25:13.961Z,4.01
2023-11-18T08:27:41.727Z,3.99
2023-11-18T08:30:12.545Z,4.01
2023-11-18T08:32:40.244Z,4.11
2023-11-18T08:35:10.968Z,4.16
2023-11-18T08:37:38.277Z,4.23
2023-11-18T08:40:07.650Z,4.26
2023-11-18T08:42:35.494Z,4.22
2023-11-18T08:45:05.249Z,4.38
2023-11-18T08:47:33.284Z,4.55
2023-11-18T08:50:12.784Z,4.66
2023-11-18T08:52:44.490Z,4.70
2023-11-18T08:55:21.937Z,4.69
2023-11-18T08:57:53.307Z,4.70
2023-11-18T09:00:39.163Z,4.80
2023-11-18T09:03:06.638Z,4.91
2023-11-18T09:05:34.003Z,4.88
2023-11-18T09:08:03.268Z,4.96
2023-11-18T09:10:30.292Z,4.98
2023-11-18T09:12:58.145Z,5.00
2023-11-18T09:15:25.585Z,4.88
2023-11-18T09:17:54.072Z,4.93
2023-11-18T09:20:23.730Z,4.93
2023-11-18T09:22:50.652Z,4.95
2023-11-18T09:25:18.619Z,4.94
2023-11-18T09:27:46.256Z,4.97
2023-11-18T09:30:16.161Z,5.06
2023-11-18T09:32:43.462Z,5.02
2023-11-18T09:35:13.614Z,4.98
2023-11-18T09:37:43.658Z,4.93
2023-11-18T09:40:16.779Z,5.02
2023-11-18T09:42:45.217Z,5.07
2023-11-18T09:45:15.167Z,5.01
2023-11-18T09:47:43.586Z,5.11
2023-11-18T09:50:11.818Z,5.17
2023-11-18T09:52:42.383Z,5.04
2023-11-18T09:55:16.418Z,5.05
2023-11-18T09:57:45.005Z,5.13
2023-11-18T10:00:22.017Z,5.16
2023-11-18T10:02:51.484Z,5.13
2023-11-18T10:05:21.868Z,5.20
2023-11-18T10:07:49.532Z,5.20
2023-11-18T10:10:16.904Z,5.33
2023-11-18T10:12:45.986Z,5.48
2023-11-18T10:15:14.649Z,5.63
2023-11-18T10:17:56.245Z,5.77
2023-11-18T10:20:26.789Z,5.92
2023-11-18T10:23:23.079Z,6.03
2023-11-18T10:25:54.130Z,5.84
2023-11-18T10:28:33.492Z,5.91
2023-11-18T10:31:07.588Z,5.99
2023-11-18T10:33:38.788Z,6.00
2023-11-18T10:36:08.469Z,6.03
2023-11-18T10:38:44.719Z,6.00
2023-11-18T10:41:13.237Z,6.06
2023-11-18T10:43:43.074Z,6.05
2023-11-18T10:46:17.085Z,6.00
2023-11-18T10:48:50.270Z,5.97
2023-11-18T10:51:21.175Z,6.04
2023-11-18T10:53:54.789Z,6.05
2023-11-18T10:56:28.389Z,6.05
2023-11-18T10:59:01.763Z,6.03
2023-11-18T11:01:34.907Z,6.04
2023-11-18T11:04:05.583Z,6.03
2023-11-18T11:06:33.496Z,6.05
2023-11-18T11:09:00.549Z,6.14
2023-11-18T11:11:30.121Z,6.23
2023-11-18T11:13:58.124Z,6.27
2023-11-18T11:16:32.852Z,6.32
2023-11-18T11:18:59.953Z,6.28
2023-11-18T11:21:29.510Z,6.03
2023-11-18T11:23:58.941Z,5.90
2023-11-18T11:26:42.209Z,5.97
2023-11-18T11:29:21.280Z,6.03
2023-11-18T11:31:49.450Z,6.04
2023-11-18T11:34:21.534Z,5.77
2023-11-18T11:36:52.193Z,5.76
2023-11-18T11:39:26.568Z,5.50
2023-11-18T11:41:57.314Z,5.65
2023-11-18T11:44:31.552Z,5.81
2023-11-18T11:47:01.170Z,5.85
2023-11-18T11:49:30.795Z,5.74
2023-11-18T11:52:04.534Z,5.75
2023-11-18T11:54:51.069Z,5.80
2023-11-18T11:57:18.055Z,6.35
2023-11-18T11:59:45.875Z,8.60
2023-11-18T12:02:18.640Z,10.71
2023-11-18T12:04:55.373Z,11.81
2023-11-18T12:07:24.360Z,11.85
2023-11-18T12:09:54.658Z,10.77
2023-11-18T12:12:22.110Z,10.29
2023-11-18T12:14:53.493Z,9.35
2023-11-18T12:17:23.518Z,9.08
2023-11-18T12:19:51.963Z,8.64
2023-11-18T12:22:20.218Z,8.39
2023-11-18T12:24:57.414Z,8.91
2023-11-18T12:27:40.433Z,10.61
2023-11-18T12:30:16.476Z,11.77
2023-11-18T12:33:11.483Z,11.74
2023-11-18T12:35:39.174Z,12.85
2023-11-18T12:38:08.011Z,15.24
2023-11-18T12:40:47.823Z,17.74
2023-11-18T12:43:18.682Z,19.42
2023-11-18T12:45:54.852Z,21.34
2023-11-18T12:48:27.953Z,20.54
2023-11-18T12:50:56.688Z,21.83
2023-11-18T12:53:26.774Z,21.02
2023-11-18T12:55:54.013Z,19.57
2023-11-18T12:58:21.287Z,21.49
2023-11-18T13:00:48.439Z,23.64
2023-11-18T13:03:16.484Z,25.21
2023-11-18T13:05:44.681Z,26.98
2023-11-18T13:08:11.732Z,24.49
2023-11-18T13:10:38.780Z,17.70
2023-11-18T13:13:06.241Z,14.95
2023-11-18T13:15:33.181Z,12.87
2023-11-18T13:18:10.718Z,11.33
2023-11-18T13:20:38.417Z,10.92
2023-11-18T13:23:09.728Z,12.86
2023-11-18T13:25:37.871Z,12.84
2023-11-18T13:28:06.208Z,13.25
2023-11-18T13:30:33.688Z,12.96
2023-11-18T13:33:00.734Z,12.52
2023-11-18T13:35:28.994Z,11.40
2023-11-18T13:37:56.325Z,10.97
2023-11-18T13:40:24.841Z,11.16
2023-11-18T13:43:06.295Z,11.71
2023-11-18T13:45:38.394Z,12.95
2023-11-18T13:48:05.993Z,13.41
2023-11-18T13:50:35.270Z,14.08
2023-11-18T13:53:02.299Z,14.87
2023-11-18T13:55:29.651Z,15.67
2023-11-18T13:57:58.704Z,15.59
2023-11-18T14:00:31.198Z,14.32
2023-11-18T14:02:59.466Z,13.04
2023-11-18T14:05:26.585Z,11.83
2023-11-18T14:07:56.986Z,10.56
2023-11-18T14:10:25.738Z,9.54
2023-11-18T14:13:03.580Z,8.99
2023-11-18T14:15:31.432Z,8.70
2023-11-18T14:17:58.837Z,8.17
2023-11-18T14:20:25.957Z,7.74
2023-11-18T14:22:55.790Z,7.21
2023-11-18T14:25:25.206Z,7.09
2023-11-18T14:27:52.567Z,6.92
2023-11-18T14:30:20.749Z,6.62
2023-11-18T14:32:47.926Z,6.48
2023-11-18T14:35:18.284Z,6.41
2023-11-18T14:37:46.256Z,6.29
2023-11-18T14:40:16.999Z,6.22
2023-11-18T14:42:46.996Z,6.08
2023-11-18T14:45:14.696Z,5.99
2023-11-18T14:47:42.224Z,5.94
2023-11-18T14:50:18.684Z,5.91
2023-11-18T14:52:46.741Z,5.82
2023-11-18T14:55:13.768Z,5.78
2023-11-18T14:57:44.472Z,5.70
2023-11-18T15:00:27.969Z,5.67
2023-11-18T15:02:58.217Z,5.63
2023-11-18T15:05:28.257Z,5.58
2023-11-18T15:07:56.129Z,5.49
2023-11-18T15:10:23.636Z,5.44
2023-11-18T15:12:54.227Z,5.41
2023-11-18T15:15:32.019Z,5.34
2023-11-18T15:18:06.000Z,5.35
2023-11-18T15:20:33.193Z,5.24
2023-11-18T15:23:01.273Z,5.22
2023-11-18T15:25:28.419Z,5.19
2023-11-18T15:27:57.191Z,5.11
2023-11-18T15:30:26.453Z,5.11
2023-11-18T15:32:53.619Z,5.08
2023-11-18T15:35:22.150Z,5.04
2023-11-18T15:37:49.198Z,5.03
2023-11-18T15:40:20.290Z,5.05
2023-11-18T15:42:50.999Z,4.99
2023-11-18T15:45:18.513Z,5.01
2023-11-18T15:47:45.650Z,4.98
2023-11-18T15:50:22.451Z,4.99
2023-11-18T15:52:50.225Z,5.00
2023-11-18T15:55:18.709Z,5.00
2023-11-18T15:57:48.451Z,4.95
2023-11-18T16:00:18.501Z,4.94
2023-11-18T16:02:49.758Z,4.93
2023-11-18T16:05:18.606Z,4.93
2023-11-18T16:07:46.157Z,4.92
2023-11-18T16:10:33.704Z,4.88
2023-11-18T16:13:01.161Z,4.81
2023-11-18T16:15:28.864Z,4.78
2023-11-18T16:17:56.487Z,4.73
2023-11-18T16:20:25.511Z,4.69
2023-11-18T16:22:53.136Z,4.68
2023-11-18T16:25:21.436Z,4.63
2023-11-18T16:27:48.889Z,4.60
2023-11-18T16:30:16.148Z,4.56
2023-11-18T16:32:45.665Z,4.54
2023-11-18T16:35:14.270Z,4.51
2023-11-18T16:37:41.455Z,4.50
2023-11-18T16:40:14.977Z,4.50
2023-11-18T16:42:45.079Z,4.51
2023-11-18T16:45:12.654Z,4.50
2023-11-18T16:47:40.550Z,4.51
2023-11-18T16:50:09.173Z,4.51
2023-11-18T16:52:36.366Z,4.45
2023-11-18T16:55:03.820Z,4.42
2023-11-18T16:57:31.760Z,4.39
2023-11-18T16:59:59.009Z,4.38
2023-11-18T17:02:25.984Z,4.37
2023-11-18T17:04:53.659Z,4.35
2023-11-18T17:07:22.158Z,4.30
2023-11-18T17:09:49.118Z,4.29
2023-11-18T17:12:16.102Z,4.24
2023-11-18T17:14:43.296Z,4.21
2023-11-18T17:17:10.343Z,4.21
2023-11-18T17:19:37.390Z,4.19
2023-11-18T17:22:05.542Z,4.19
2023-11-18T17:24:32.530Z,4.15
2023-11-18T17:27:00.609Z,4.15
2023-11-18T17:29:27.566Z,4.13
2023-11-18T17:31:54.839Z,4.14
2023-11-18T17:34:21.836Z,4.15
2023-11-18T17:36:48.799Z,4.14
2023-11-18T17:39:15.710Z,4.14
2023-11-18T17:41:42.760Z,4.14
2023-11-18T17:44:09.834Z,4.12
2023-11-18T17:46:37.046Z,4.13
2023-11-18T17:49:05.738Z,4.08
2023-11-18T17:51:34.005Z,4.09
2023-11-18T17:54:01.037Z,4.07
2023-11-18T17:56:28.158Z,4.09
2023-11-18T17:58:55.196Z,4.10
2023-11-18T18:01:24.565Z,4.05
2023-11-18T18:03:52.378Z,4.07
2023-11-18T18:06:19.345Z,4.08
2023-11-18T18:08:46.293Z,4.07
2023-11-18T18:11:13.306Z,4.07
2023-11-18T18:13:40.896Z,4.09
2023-11-18T18:16:09.290Z,4.12
2023-11-18T18:18:36.270Z,4.10
2023-11-18T18:21:03.326Z,4.10
2023-11-18T18:23:30.463Z,4.11
2023-11-18T18:25:57.510Z,4.13
2023-11-18T18:28:27.298Z,4.12
2023-11-18T18:30:54.600Z,4.09
2023-11-18T18:33:21.904Z,4.12
2023-11-18T18:35:49.623Z,4.07
2023-11-18T18:38:16.700Z,4.06
2023-11-18T18:40:43.921Z,4.04
2023-11-18T18:43:11.727Z,4.04
2023-11-18T18:45:39.035Z,4.01
2023-11-18T18:48:06.075Z,4.01
2023-11-18T18:50:38.472Z,4.02
2023-11-18T18:53:08.055Z,3.98
2023-11-18T18:55:35.207Z,3.96
2023-11-18T18:58:02.258Z,3.95
2023-11-18T19:00:29.866Z,3.96
2023-11-18T19:02:56.936Z,3.96
2023-11-18T19:05:24.749Z,3.97
2023-11-18T19:07:56.825Z,3.95
2023-11-18T19:10:24.110Z,3.97
2023-11-18T19:12:51.083Z,3.95
2023-11-18T19:15:18.081Z,3.92
2023-11-18T19:17:45.733Z,3.94
2023-11-18T19:20:15.318Z,3.96
2023-11-18T19:22:42.865Z,3.98
2023-11-18T19:25:09.790Z,3.97
2023-11-18T19:27:43.687Z,3.94
2023-11-18T19:30:13.371Z,3.97
2023-11-18T19:32:41.271Z,3.94
2023-11-18T19:35:08.722Z,3.93
2023-11-18T19:37:35.922Z,3.94
2023-11-18T19:40:06.891Z,3.96
2023-11-18T19:42:34.159Z,3.97
2023-11-18T19:45:01.188Z,3.96
2023-11-18T19:47:30.568Z,3.98
2023-11-18T19:49:58.741Z,3.99
2023-11-18T19:52:25.781Z,4.02
2023-11-18T19:54:52.799Z,4.00
2023-11-18T19:57:20.001Z,4.00
2023-11-18T19:59:47.167Z,4.01
2023-11-18T20:02:14.428Z,4.01
2023-11-18T20:04:42.975Z,4.00
2023-11-18T20:07:10.261Z,4.00
2023-11-18T20:09:37.189Z,3.99
2023-11-18T20:12:05.342Z,3.98
2023-11-18T20:14:34.207Z,3.99
2023-11-18T20:17:01.554Z,4.00
2023-11-18T20:19:33.585Z,4.02
2023-11-18T20:22:01.310Z,3.99
2023-11-18T20:24:29.557Z,4.01
2023-11-18T20:26:56.506Z,4.02
2023-11-18T20:29:23.562Z,4.02
2023-11-18T20:31:50.496Z,4.05
2023-11-18T20:34:17.774Z,4.04
2023-11-18T20:36:45.031Z,4.01
2023-11-18T20:39:18.259Z,4.02
2023-11-18T20:41:45.713Z,4.02
2023-11-18T20:44:13.571Z,4.05
2023-11-18T20:46:40.808Z,4.06
2023-11-18T20:49:07.845Z,4.06
2023-11-18T20:51:35.633Z,4.04
2023-11-18T20:54:07.736Z,4.07
2023-11-18T20:56:35.315Z,4.06
2023-11-18T20:59:02.299Z,4.05
2023-11-18T21:01:30.215Z,4.06
2023-11-18T21:03:57.700Z,4.06
2023-11-18T21:06:24.945Z,4.05
2023-11-18T21:08:52.076Z,4.05
2023-11-18T21:11:19.215Z,4.06
2023-11-18T21:13:46.634Z,4.09
2023-11-18T21:16:14.021Z,4.10
2023-11-18T21:18:41.246Z,4.07
2023-11-18T21:21:08.232Z,4.09
2023-11-18T21:23:35.612Z,4.11
2023-11-18T21:26:02.678Z,4.10
2023-11-18T21:28:29.644Z,4.10
2023-11-18T21:30:57.619Z,4.11
2023-11-18T21:33:24.857Z,4.11
2023-11-18T21:35:52.229Z,4.12
2023-11-18T21:38:19.963Z,4.13
2023-11-18T21:40:47.511Z,4.14
2023-11-18T21:43:14.453Z,4.15
2023-11-18T21:45:41.419Z,4.16
2023-11-18T21:48:08.368Z,4.16
2023-11-18T21:50:35.389Z,4.16
2023-11-18T21:53:03.725Z,4.18
2023-11-18T21:55:30.951Z,4.21
2023-11-18T21:57:57.997Z,4.19
2023-11-18T22:00:25.391Z,4.19
2023-11-18T22:02:53.434Z,4.19
2023-11-18T22:05:20.775Z,4.18
2023-11-18T22:07:48.049Z,4.21
2023-11-18T22:10:18.974Z,4.19
2023-11-18T22:12:46.309Z,4.21
2023-11-18T22:15:18.350Z,4.22
2023-11-18T22:17:45.879Z,4.24
2023-11-18T22:20:15.273Z,4.24
2023-11-18T22:22:42.425Z,4.26
2023-11-18T22:25:09.838Z,4.26
2023-11-18T22:27:41.142Z,4.22
2023-11-18T22:30:08.963Z,4.22
2023-11-18T22:32:38.917Z,4.25
2023-11-18T22:35:08.059Z,4.27
2023-11-18T22:37:35.842Z,4.28
2023-11-18T22:40:09.494Z,4.31
2023-11-18T22:42:37.848Z,4.33
2023-11-18T22:45:05.215Z,4.36
2023-11-18T22:47:32.698Z,4.35
2023-11-18T22:50:01.043Z,4.32
2023-11-18T22:52:28.160Z,4.34
2023-11-18T22:54:55.173Z,4.35
2023-11-18T22:57:22.088Z,4.35
2023-11-18T22:59:49.031Z,4.30
2023-11-18T23:02:17.670Z,4.30
2023-11-18T23:04:46.462Z,4.29
2023-11-18T23:07:15.732Z,4.31
2023-11-18T23:09:42.868Z,4.31
2023-11-18T23:12:10.533Z,4.32
2023-11-18T23:14:38.068Z,4.31
2023-11-18T23:19:41.830Z,4.29
2023-11-18T23:22:16.055Z,4.31
2023-11-18T23:24:44.105Z,4.27
2023-11-18T23:27:11.398Z,4.28
2023-11-18T23:29:38.560Z,4.30
2023-11-18T23:32:06.814Z,4.31
2023-11-18T23:34:34.194Z,4.30
2023-11-18T23:37:01.350Z,4.29
2023-11-18T23:39:31.841Z,4.28
2023-11-18T23:41:58.828Z,4.26
2023-11-18T23:44:25.772Z,4.24
2023-11-18T23:46:53.311Z,4.22
2023-11-18T23:49:20.641Z,4.22
2023-11-18T23:51:47.648Z,4.22
2023-11-18T23:54:14.688Z,4.15
2023-11-18T23:56:41.643Z,4.14
2023-11-18T23:59:08.849Z,4.14
